createdAt,value
2022-11-21T00:00:01.029Z,65.95
2022-11-21T00:02:32.369Z,72.68
2022-11-21T00:05:01.263Z,70.07
2022-11-21T00:07:29.758Z,66.05
2022-11-21T00:09:59.039Z,68.53
2022-11-21T00:12:28.176Z,65.13
2022-11-21T00:14:57.501Z,70.18
2022-11-21T00:17:27.792Z,65.53
2022-11-21T00:19:56.853Z,61.42
2022-11-21T00:22:26.251Z,67.30
2022-11-21T00:24:56.943Z,65.13
2022-11-21T00:27:26.174Z,63.70
2022-11-21T00:30:02.102Z,61.78
2022-11-21T00:32:32.613Z,66.75
2022-11-21T00:35:02.163Z,68.50
2022-11-21T00:37:33.109Z,63.85
2022-11-21T00:40:03.943Z,61.42
2022-11-21T00:42:34.745Z,64.80
2022-11-21T00:45:03.374Z,63.08
2022-11-21T00:47:33.817Z,64.95
2022-11-21T00:50:06.290Z,61.53
2022-11-21T00:52:37.399Z,63.85
2022-11-21T00:55:07.659Z,68.32
2022-11-21T00:57:36.526Z,60.65
2022-11-21T01:00:09.088Z,68.28
2022-11-21T01:02:39.913Z,66.55
2022-11-21T01:05:13.927Z,61.00
2022-11-21T01:07:43.298Z,66.78
2022-11-21T01:10:12.363Z,62.08
2022-11-21T01:12:41.828Z,67.78
2022-11-21T01:15:12.387Z,60.13
2022-11-21T01:17:42.883Z,66.15
2022-11-21T01:20:12.350Z,60.80
2022-11-21T01:22:41.688Z,67.70
2022-11-21T01:25:11.212Z,68.10
2022-11-21T01:27:39.874Z,65.95
2022-11-21T01:30:11.896Z,65.38
2022-11-21T01:32:42.197Z,68.28
2022-11-21T01:35:11.205Z,65.47
2022-11-21T01:37:41.241Z,64.25
2022-11-21T01:40:11.618Z,67.22
2022-11-21T01:43:04.550Z,62.08
2022-11-21T01:45:56.246Z,58.95
2022-11-21T01:48:34.298Z,63.50
2022-11-21T01:51:09.785Z,59.10
2022-11-21T01:53:40.653Z,58.78
2022-11-21T01:56:12.157Z,64.28
2022-11-21T01:58:42.962Z,57.97
2022-11-21T02:01:12.731Z,62.25
2022-11-21T02:03:46.524Z,58.35
2022-11-21T02:06:16.158Z,56.17
2022-11-21T02:08:48.059Z,60.70
2022-11-21T02:11:28.753Z,62.85
2022-11-21T02:13:58.112Z,61.60
2022-11-21T02:16:27.991Z,61.08
2022-11-21T02:19:01.558Z,62.28
2022-11-21T02:21:45.242Z,67.63
2022-11-21T02:24:22.393Z,65.35
2022-11-21T02:26:53.458Z,61.83
2022-11-21T02:29:22.384Z,63.35
2022-11-21T02:31:53.796Z,69.03
2022-11-21T02:34:22.712Z,69.75
2022-11-21T02:36:51.186Z,64.63
2022-11-21T02:39:25.245Z,66.53
2022-11-21T02:42:06.681Z,70.93
2022-11-21T02:44:43.333Z,65.65
2022-11-21T02:47:11.738Z,69.78
2022-11-21T02:49:48.717Z,73.18
2022-11-21T02:52:18.401Z,72.93
2022-11-21T02:54:47.338Z,72.00
2022-11-21T02:57:18.894Z,75.50
2022-11-21T02:59:47.953Z,75.88
2022-11-21T03:02:17.237Z,81.25
2022-11-21T03:04:46.490Z,78.40
2022-11-21T03:07:15.352Z,79.07
2022-11-21T03:09:44.841Z,81.63
2022-11-21T03:12:14.021Z,75.53
2022-11-21T03:14:44.769Z,78.30
2022-11-21T03:17:14.410Z,84.80
2022-11-21T03:19:45.401Z,74.30
2022-11-21T03:22:17.811Z,82.68
2022-11-21T03:24:47.512Z,76.47
2022-11-21T03:27:17.002Z,97.65
2022-11-21T03:29:47.032Z,104.15
2022-11-21T03:32:17.579Z,114.10
2022-11-21T03:34:46.129Z,115.45
2022-11-21T03:37:15.930Z,110.05
2022-11-21T03:39:44.463Z,114.75
2022-11-21T03:42:12.737Z,120.25
2022-11-21T03:44:41.635Z,118.10
2022-11-21T03:47:11.744Z,119.70
2022-11-21T03:49:40.693Z,131.50
2022-11-21T03:52:09.983Z,133.45
2022-11-21T03:54:39.102Z,126.72
2022-11-21T03:57:07.482Z,119.43
2022-11-21T03:59:36.740Z,121.20
2022-11-21T04:02:05.025Z,122.80
2022-11-21T04:04:36.170Z,126.30
2022-11-21T04:07:04.862Z,131.57
2022-11-21T04:09:40.667Z,123.00
2022-11-21T04:12:10.464Z,124.55
2022-11-21T04:14:41.158Z,130.40
2022-11-21T04:17:11.602Z,124.45
2022-11-21T04:19:41.982Z,119.60
2022-11-21T04:22:11.195Z,136.30
2022-11-21T04:24:42.295Z,140.05
2022-11-21T04:27:10.868Z,136.55
2022-11-21T04:29:39.391Z,140.18
2022-11-21T04:32:10.654Z,162.02
2022-11-21T04:34:42.150Z,153.88
2022-11-21T04:37:11.911Z,155.10
2022-11-21T04:39:41.239Z,168.13
2022-11-21T04:42:09.923Z,158.50
2022-11-21T04:44:38.969Z,153.35
2022-11-21T04:47:09.117Z,154.77
2022-11-21T04:49:37.789Z,145.45
2022-11-21T04:52:08.611Z,156.55
2022-11-21T04:54:37.189Z,152.55
2022-11-21T04:57:06.736Z,149.77
2022-11-21T04:59:35.484Z,155.02
2022-11-21T05:02:05.433Z,153.10
2022-11-21T05:04:34.289Z,151.07
2022-11-21T05:07:04.012Z,152.25
2022-11-21T05:09:34.732Z,162.02
2022-11-21T05:12:20.544Z,146.85
2022-11-21T05:14:49.308Z,165.60
2022-11-21T05:17:17.581Z,161.30
2022-11-21T05:19:46.471Z,188.82
2022-11-21T05:22:15.781Z,184.90
2022-11-21T05:24:46.732Z,173.52
2022-11-21T05:27:16.303Z,193.18
2022-11-21T05:29:46.242Z,210.07
2022-11-21T05:32:15.440Z,223.52
2022-11-21T05:34:47.216Z,207.38
2022-11-21T05:37:17.085Z,226.02
2022-11-21T05:39:47.317Z,206.00
2022-11-21T05:42:37.520Z,255.13
2022-11-21T05:45:07.214Z,253.98
2022-11-21T05:47:36.835Z,240.05
2022-11-21T05:50:06.397Z,238.82
2022-11-21T05:52:36.185Z,224.95
2022-11-21T05:55:10.043Z,224.45
2022-11-21T05:57:43.335Z,206.30
2022-11-21T06:00:17.400Z,214.45
2022-11-21T06:03:03.403Z,267.42
2022-11-21T06:05:32.936Z,235.88
2022-11-21T06:08:01.570Z,237.43
2022-11-21T06:10:32.529Z,191.95
2022-11-21T06:13:04.639Z,201.80
2022-11-21T06:15:34.074Z,188.57
2022-11-21T06:18:03.133Z,170.05
2022-11-21T06:20:31.813Z,172.15
2022-11-21T06:23:01.009Z,154.60
2022-11-21T06:25:31.732Z,163.45
2022-11-21T06:28:01.946Z,143.63
2022-11-21T06:30:32.718Z,129.90
2022-11-21T06:33:01.616Z,130.45
2022-11-21T06:35:30.641Z,115.07
2022-11-21T06:38:01.741Z,108.07
2022-11-21T06:40:32.241Z,105.60
2022-11-21T06:43:00.743Z,111.97
2022-11-21T06:45:29.705Z,102.05
2022-11-21T06:47:58.544Z,114.20
2022-11-21T06:50:30.078Z,109.00
2022-11-21T06:53:00.307Z,108.82
2022-11-21T06:55:34.406Z,110.60
2022-11-21T07:00:48.408Z,125.80
2022-11-21T07:03:21.448Z,112.72
2022-11-21T07:05:50.841Z,118.70
2022-11-21T07:08:19.795Z,125.88
2022-11-21T07:11:22.687Z,129.40
2022-11-21T07:13:39.327Z,126.68
2022-11-21T07:16:11.178Z,125.38
2022-11-21T07:18:40.875Z,127.93
2022-11-21T07:21:10.907Z,118.22
2022-11-21T07:23:41.236Z,116.90
2022-11-21T07:26:12.685Z,123.97
2022-11-21T07:28:41.694Z,119.82
2022-11-21T07:31:14.484Z,118.95
2022-11-21T07:33:45.896Z,120.10
2022-11-21T07:36:18.638Z,123.35
2022-11-21T07:38:48.516Z,125.68
2022-11-21T07:41:18.692Z,126.05
2022-11-21T07:43:47.282Z,133.10
2022-11-21T07:46:16.690Z,140.07
2022-11-21T07:48:45.683Z,136.98
2022-11-21T07:51:16.724Z,136.73
2022-11-21T07:54:03.174Z,167.93
2022-11-21T08:02:17.375Z,141.30
2022-11-21T08:16:56.420Z,121.50
2022-11-21T08:19:26.614Z,115.55
2022-11-21T08:21:58.861Z,114.05
2022-11-21T08:24:33.191Z,116.28
2022-11-21T08:27:02.380Z,108.07
2022-11-21T08:29:31.502Z,124.28
2022-11-21T08:32:02.464Z,106.93
2022-11-21T08:34:37.269Z,109.10
2022-11-21T08:37:10.254Z,98.25
2022-11-21T08:39:40.371Z,106.65
2022-11-21T08:42:09.213Z,109.60
2022-11-21T08:44:37.942Z,103.15
2022-11-21T08:47:08.867Z,109.65
2022-11-21T08:49:39.700Z,106.30
2022-11-21T08:52:08.776Z,116.07
2022-11-21T08:54:37.705Z,102.35
2022-11-21T08:57:07.211Z,114.40
2022-11-21T08:59:41.014Z,115.13
2022-11-21T09:02:13.107Z,111.70
2022-11-21T09:04:41.886Z,110.57
2022-11-21T09:07:11.819Z,114.43
2022-11-21T09:09:40.980Z,109.03
2022-11-21T09:12:09.628Z,116.95
2022-11-21T09:14:57.168Z,103.60
2022-11-21T09:17:44.612Z,117.10
2022-11-21T09:20:14.037Z,107.88
2022-11-21T09:22:42.782Z,104.38
2022-11-21T09:25:16.866Z,107.57
2022-11-21T09:27:46.887Z,102.88
2022-11-21T09:30:18.811Z,105.93
2022-11-21T09:32:50.133Z,97.78
2022-11-21T09:35:20.622Z,99.88
2022-11-21T09:37:54.705Z,101.22
2022-11-21T09:40:28.435Z,91.95
2022-11-21T09:43:45.831Z,90.80
2022-11-21T09:46:20.563Z,86.78
2022-11-21T09:48:58.471Z,94.30
2022-11-21T09:51:33.702Z,90.93
2022-11-21T09:54:08.392Z,89.20
2022-11-21T09:56:41.082Z,86.38
2022-11-21T09:59:33.497Z,83.57
2022-11-21T10:02:04.102Z,78.25
2022-11-21T10:04:36.471Z,89.60
2022-11-21T10:07:13.607Z,80.68
2022-11-21T10:10:05.006Z,75.70
2022-11-21T10:12:46.281Z,82.65
2022-11-21T10:15:47.199Z,77.38
2022-11-21T10:19:05.914Z,83.00
2022-11-21T10:22:11.018Z,71.50
2022-11-21T10:24:53.053Z,77.43
2022-11-21T10:27:33.208Z,77.38
2022-11-21T10:30:06.553Z,84.72
2022-11-21T10:32:40.955Z,86.70
2022-11-21T10:38:24.533Z,79.55
2022-11-21T10:40:57.385Z,80.30
2022-11-21T10:43:51.485Z,88.72
2022-11-21T10:46:19.843Z,75.90
2022-11-21T10:48:57.303Z,84.32
2022-11-21T10:51:44.092Z,76.28
2022-11-21T10:54:34.084Z,84.60
2022-11-21T10:57:12.264Z,80.65
2022-11-21T10:59:41.182Z,80.75
2022-11-21T11:02:25.957Z,76.70
2022-11-21T11:05:20.499Z,78.63
2022-11-21T11:08:03.753Z,81.18
2022-11-21T11:10:36.320Z,80.82
2022-11-21T11:13:45.067Z,74.80
2022-11-21T11:16:24.694Z,81.57
2022-11-21T11:19:00.544Z,70.50
2022-11-21T11:21:31.081Z,74.57
2022-11-21T11:24:26.081Z,70.57
2022-11-21T11:27:03.457Z,70.47
2022-11-21T11:29:36.160Z,68.68
2022-11-21T11:32:20.820Z,66.03
2022-11-21T11:35:01.435Z,72.55
2022-11-21T11:37:40.742Z,65.63
2022-11-21T11:40:23.127Z,69.28
2022-11-21T11:43:38.822Z,64.97
2022-11-21T11:46:44.408Z,72.28
2022-11-21T11:49:21.723Z,74.72
2022-11-21T11:51:58.591Z,72.00
2022-11-21T11:54:34.477Z,72.90
2022-11-21T11:57:05.492Z,65.20
2022-11-21T11:59:41.135Z,71.15
2022-11-21T12:02:22.413Z,71.63
2022-11-21T12:04:59.940Z,64.63
2022-11-21T12:10:33.798Z,64.15
2022-11-21T12:13:12.581Z,65.07
2022-11-21T12:15:52.715Z,72.07
2022-11-21T12:18:33.991Z,74.18
2022-11-21T12:21:12.451Z,68.90
2022-11-21T12:23:49.804Z,75.78
2022-11-21T12:26:42.215Z,72.78
2022-11-21T12:29:49.744Z,72.18
2022-11-21T12:32:35.377Z,72.20
2022-11-21T12:38:12.535Z,68.85
2022-11-21T12:41:00.465Z,75.50
2022-11-21T12:43:40.766Z,63.45
2022-11-21T12:46:23.110Z,72.22
2022-11-21T12:49:22.333Z,70.70
2022-11-21T12:52:23.405Z,67.97
2022-11-21T12:55:10.890Z,69.10
2022-11-21T12:58:03.051Z,66.43
2022-11-21T13:00:43.358Z,64.22
2022-11-21T13:03:44.904Z,64.57
2022-11-21T13:06:20.631Z,67.63
2022-11-21T13:08:54.461Z,63.28
2022-11-21T13:12:04.934Z,60.35
2022-11-21T13:14:49.193Z,59.92
2022-11-21T13:17:39.038Z,64.32
2022-11-21T13:20:26.000Z,59.17
2022-11-21T13:23:06.492Z,67.35
2022-11-21T13:26:01.145Z,62.00
2022-11-21T13:28:39.054Z,59.70
2022-11-21T13:31:34.020Z,62.03
2022-11-21T13:34:05.953Z,59.70
2022-11-21T13:36:45.904Z,63.15
2022-11-21T13:39:38.912Z,66.85
2022-11-21T13:42:33.477Z,70.43
2022-11-21T13:45:44.457Z,60.53
2022-11-21T13:48:41.033Z,58.53
2022-11-21T13:51:48.664Z,67.35
2022-11-21T13:54:56.123Z,68.72
2022-11-21T13:57:43.558Z,62.17
2022-11-21T14:00:59.897Z,64.38
2022-11-21T14:04:23.177Z,61.70
2022-11-21T14:06:52.172Z,54.60
2022-11-21T14:09:40.893Z,64.05
2022-11-21T14:12:32.696Z,61.00
2022-11-21T14:15:30.307Z,61.10
2022-11-21T14:18:01.212Z,56.63
2022-11-21T14:20:50.147Z,57.63
2022-11-21T14:23:22.446Z,61.75
2022-11-21T14:25:55.702Z,59.70
2022-11-21T14:28:31.043Z,57.75
2022-11-21T14:31:10.485Z,60.33
2022-11-21T14:33:41.239Z,56.35
2022-11-21T14:36:15.623Z,53.97
2022-11-21T14:38:50.977Z,51.93
2022-11-21T14:41:31.924Z,51.85
2022-11-21T14:44:18.816Z,60.95
2022-11-21T14:46:48.764Z,60.13
2022-11-21T14:49:35.421Z,54.25
2022-11-21T14:52:19.807Z,50.38
2022-11-21T14:55:28.123Z,54.33
2022-11-21T14:57:45.176Z,54.75
2022-11-21T15:00:58.579Z,49.92
2022-11-21T15:06:08.512Z,48.47
2022-11-21T15:11:37.951Z,57.15
2022-11-21T15:14:21.444Z,56.70
2022-11-21T15:16:56.022Z,55.10
2022-11-21T15:19:27.937Z,57.42
2022-11-21T15:21:59.086Z,57.25
2022-11-21T15:24:41.784Z,55.05
2022-11-21T15:27:33.390Z,57.58
2022-11-21T15:30:25.978Z,61.90
2022-11-21T15:33:05.356Z,53.33
2022-11-21T15:35:55.568Z,56.67
2022-11-21T15:38:34.612Z,56.42
2022-11-21T15:41:14.560Z,49.05
2022-11-21T15:43:45.898Z,53.05
2022-11-21T15:46:21.018Z,60.97
2022-11-21T15:48:57.211Z,49.60
2022-11-21T15:51:59.600Z,62.75
2022-11-21T15:54:23.229Z,56.50
2022-11-21T15:56:52.531Z,60.42
2022-11-21T15:59:22.550Z,54.75
2022-11-21T16:01:51.614Z,50.78
2022-11-21T16:04:25.892Z,48.13
2022-11-21T16:07:06.841Z,54.08
2022-11-21T16:09:38.742Z,48.53
2022-11-21T16:12:08.224Z,56.05
2022-11-21T16:14:36.894Z,48.58
2022-11-21T16:17:05.927Z,53.83
2022-11-21T16:19:35.736Z,52.15
2022-11-21T16:22:07.525Z,47.83
2022-11-21T16:24:36.547Z,51.83
2022-11-21T16:27:05.082Z,49.00
2022-11-21T16:29:34.070Z,61.42
2022-11-21T16:32:03.861Z,45.03
2022-11-21T16:34:33.450Z,46.53
2022-11-21T16:37:07.307Z,49.40
2022-11-21T16:39:37.081Z,46.63
2022-11-21T16:42:06.060Z,49.30
2022-11-21T16:44:37.210Z,46.08
2022-11-21T16:47:08.559Z,43.70
2022-11-21T16:55:19.752Z,42.78
2022-11-21T16:57:53.677Z,38.47
2022-11-21T17:00:24.608Z,37.78
2022-11-21T17:02:53.456Z,41.45
2022-11-21T17:05:22.692Z,36.78
2022-11-21T17:07:53.751Z,34.58
2022-11-21T17:10:22.852Z,37.60
2022-11-21T17:12:58.345Z,36.50
2022-11-21T17:15:31.686Z,31.27
2022-11-21T17:18:02.936Z,31.58
2022-11-21T17:20:32.136Z,35.08
2022-11-21T17:23:02.762Z,33.67
2022-11-21T17:25:32.078Z,32.28
2022-11-21T17:28:02.581Z,34.17
2022-11-21T17:30:33.152Z,28.73
2022-11-21T17:33:02.415Z,29.30
2022-11-21T17:35:31.031Z,32.40
2022-11-21T17:38:05.511Z,30.65
2022-11-21T17:40:37.585Z,25.75
2022-11-21T17:43:33.028Z,27.10
2022-11-21T17:46:10.056Z,27.52
2022-11-21T17:48:41.834Z,23.83
2022-11-21T17:51:14.014Z,33.35
2022-11-21T17:53:47.187Z,25.70
2022-11-21T17:56:18.250Z,23.02
2022-11-21T17:58:47.200Z,26.20
2022-11-21T18:01:20.314Z,28.00
2022-11-21T18:03:54.891Z,32.60
2022-11-21T18:06:26.094Z,29.70
2022-11-21T18:09:02.143Z,28.40
2022-11-21T18:11:37.826Z,37.42
2022-11-21T18:14:09.528Z,31.13
2022-11-21T18:16:39.874Z,34.63
2022-11-21T18:19:12.774Z,38.80
2022-11-21T18:21:41.754Z,29.50
2022-11-21T18:24:12.289Z,29.08
2022-11-21T18:26:41.705Z,41.20
2022-11-21T18:32:00.170Z,44.13
2022-11-21T18:34:28.795Z,41.22
2022-11-21T18:36:57.778Z,33.60
2022-11-21T18:39:32.157Z,34.35
2022-11-21T18:42:01.692Z,43.95
2022-11-21T18:44:35.170Z,41.65
2022-11-21T18:47:16.048Z,43.63
2022-11-21T18:49:48.959Z,36.75
2022-11-21T18:52:29.510Z,37.97
2022-11-21T18:55:12.739Z,35.25
2022-11-21T19:00:29.553Z,40.67
2022-11-21T19:03:00.360Z,39.15
2022-11-21T19:05:30.100Z,36.13
2022-11-21T19:07:59.137Z,38.60
2022-11-21T19:10:42.984Z,33.95
2022-11-21T19:13:15.572Z,34.75
2022-11-21T19:15:45.442Z,34.95
2022-11-21T19:18:16.773Z,35.78
2022-11-21T19:20:45.758Z,32.20
2022-11-21T19:23:19.612Z,31.85
2022-11-21T19:25:53.507Z,34.50
2022-11-21T19:28:21.958Z,29.30
2022-11-21T19:30:50.800Z,33.60
2022-11-21T19:33:20.220Z,34.47
2022-11-21T19:35:51.892Z,31.42
2022-11-21T19:38:23.751Z,39.22
2022-11-21T19:41:11.174Z,32.13
2022-11-21T19:43:43.468Z,30.05
2022-11-21T19:46:13.599Z,36.90
2022-11-21T19:48:43.333Z,43.05
2022-11-21T19:51:17.252Z,36.65
2022-11-21T19:53:47.432Z,34.33
2022-11-21T19:56:31.099Z,32.97
2022-11-21T19:59:01.582Z,29.40
2022-11-21T20:01:35.774Z,33.78
2022-11-21T20:04:08.299Z,34.50
2022-11-21T20:06:38.964Z,33.83
2022-11-21T20:09:11.378Z,32.30
2022-11-21T20:11:45.843Z,33.13
2022-11-21T20:14:22.356Z,30.40
2022-11-21T20:16:54.737Z,29.98
2022-11-21T20:19:26.838Z,29.02
2022-11-21T20:21:56.247Z,29.80
2022-11-21T20:24:28.053Z,30.35
2022-11-21T20:27:02.593Z,40.28
2022-11-21T20:29:32.790Z,28.50
2022-11-21T20:32:02.627Z,35.25
2022-11-21T20:34:31.677Z,31.27
2022-11-21T20:37:04.826Z,29.92
2022-11-21T20:39:34.250Z,31.48
2022-11-21T20:42:11.166Z,28.25
2022-11-21T20:47:32.697Z,33.38
2022-11-21T20:50:06.148Z,28.55
2022-11-21T20:55:26.218Z,28.52
2022-11-21T20:57:57.386Z,25.08
2022-11-21T21:00:42.697Z,30.52
2022-11-21T21:03:17.374Z,28.65
2022-11-21T21:06:07.319Z,36.43
2022-11-21T21:08:37.877Z,32.75
2022-11-21T21:11:51.088Z,26.77
2022-11-21T21:14:20.893Z,31.17
2022-11-21T21:16:50.019Z,26.58
2022-11-21T21:19:20.558Z,34.92
2022-11-21T21:21:49.559Z,30.08
2022-11-21T21:24:21.109Z,35.88
2022-11-21T21:26:51.401Z,26.65
2022-11-21T21:29:23.115Z,29.35
2022-11-21T21:32:19.515Z,35.03
2022-11-21T21:34:51.193Z,35.78
2022-11-21T21:37:20.032Z,38.05
2022-11-21T21:39:49.932Z,31.15
2022-11-21T21:42:18.668Z,27.60
2022-11-21T21:44:50.070Z,32.22
2022-11-21T21:47:22.624Z,30.90
2022-11-21T21:52:52.786Z,29.98
2022-11-21T21:55:22.865Z,37.67
2022-11-21T21:57:52.773Z,30.83
2022-11-21T22:00:23.923Z,30.92
2022-11-21T22:02:53.940Z,28.27
2022-11-21T22:05:23.783Z,34.28
2022-11-21T22:07:53.035Z,29.73
2022-11-21T22:10:22.542Z,30.40
2022-11-21T22:12:52.288Z,31.90
2022-11-21T22:15:24.205Z,37.58
2022-11-21T22:17:54.779Z,33.67
2022-11-21T22:20:24.343Z,38.88
2022-11-21T22:23:00.230Z,32.72
2022-11-21T22:25:31.827Z,32.25
2022-11-21T22:28:01.335Z,34.00
2022-11-21T22:30:33.457Z,34.72
2022-11-21T22:33:02.324Z,37.55
2022-11-21T22:35:33.481Z,39.95
2022-11-21T22:38:03.161Z,25.00
2022-11-21T22:40:33.039Z,35.83
2022-11-21T22:43:01.725Z,31.08
2022-11-21T22:45:35.418Z,35.83
2022-11-21T22:48:05.201Z,32.80
2022-11-21T22:50:37.803Z,34.22
2022-11-21T22:53:10.683Z,34.28
2022-11-21T22:55:40.301Z,33.70
2022-11-21T22:58:09.539Z,32.40
2022-11-21T23:00:40.066Z,35.42
2022-11-21T23:03:11.083Z,35.65
2022-11-21T23:05:40.156Z,28.80
2022-11-21T23:08:11.704Z,39.90
2022-11-21T23:10:40.787Z,30.05
2022-11-21T23:13:11.093Z,30.30
2022-11-21T23:15:43.708Z,32.65
2022-11-21T23:18:14.638Z,24.80
2022-11-21T23:20:48.141Z,25.70
2022-11-21T23:23:17.508Z,25.55
2022-11-21T23:25:48.056Z,28.73
2022-11-21T23:28:17.057Z,25.80
2022-11-21T23:30:50.935Z,24.50
2022-11-21T23:33:20.080Z,24.42
2022-11-21T23:35:48.693Z,22.50
2022-11-21T23:38:18.832Z,19.25
2022-11-21T23:40:50.289Z,23.98
2022-11-21T23:43:20.640Z,28.10
2022-11-21T23:46:10.124Z,23.98
2022-11-21T23:48:38.986Z,29.15
2022-11-21T23:51:10.330Z,24.63
2022-11-21T23:53:39.401Z,27.90
2022-11-21T23:56:08.629Z,26.27
2022-11-21T23:58:37.640Z,27.77
